createdAt,value
2017-02-11T00:00:12.844Z,22.73
2017-02-11T00:00:27.379Z,22.71
2017-02-11T00:00:41.922Z,22.75
2017-02-11T00:00:56.690Z,22.76
2017-02-11T00:01:11.281Z,22.76
2017-02-11T00:01:25.824Z,22.75
2017-02-11T00:01:40.366Z,22.78
2017-02-11T00:01:54.905Z,22.76
2017-02-11T00:02:09.461Z,22.71
2017-02-11T00:02:23.971Z,22.69
2017-02-11T00:02:38.512Z,22.76
2017-02-11T00:02:53.144Z,22.79
2017-02-11T00:03:07.678Z,22.73
2017-02-11T00:03:22.199Z,22.78
2017-02-11T00:03:36.715Z,22.76
2017-02-11T00:03:51.227Z,22.78
2017-02-11T00:04:05.942Z,22.76
2017-02-11T00:04:20.484Z,22.78
2017-02-11T00:04:35.035Z,22.76
2017-02-11T00:04:49.628Z,22.73
2017-02-11T00:05:04.179Z,22.81
2017-02-11T00:05:18.733Z,22.76
2017-02-11T00:05:33.312Z,22.75
2017-02-11T00:05:47.819Z,22.73
2017-02-11T00:06:02.396Z,22.69
2017-02-11T00:06:16.961Z,22.76
2017-02-11T00:06:31.456Z,22.76
2017-02-11T00:06:45.965Z,22.73
2017-02-11T00:07:00.536Z,22.7
2017-02-11T00:07:15.090Z,22.69
2017-02-11T00:07:29.618Z,22.73
2017-02-11T00:07:44.109Z,22.7
2017-02-11T00:07:58.701Z,22.78
2017-02-11T00:08:13.275Z,22.71
2017-02-11T00:08:27.802Z,22.73
2017-02-11T00:08:42.330Z,22.71
2017-02-11T00:08:56.882Z,22.69
2017-02-11T00:09:11.380Z,22.78
2017-02-11T00:09:25.926Z,22.73
2017-02-11T00:09:40.505Z,22.75
2017-02-11T00:09:55.039Z,22.75
2017-02-11T00:10:09.628Z,22.76
2017-02-11T00:10:24.165Z,22.69
2017-02-11T00:10:38.709Z,22.76
2017-02-11T00:10:53.284Z,22.73
2017-02-11T00:11:07.792Z,22.76
2017-02-11T00:11:22.312Z,22.71
2017-02-11T00:11:36.824Z,22.67
2017-02-11T00:11:51.433Z,22.7
2017-02-11T00:12:05.980Z,22.71
2017-02-11T00:12:20.542Z,22.67
2017-02-11T00:12:35.060Z,22.73
2017-02-11T00:12:49.611Z,22.71
2017-02-11T00:13:04.137Z,22.7
2017-02-11T00:13:18.693Z,22.78
2017-02-11T00:13:33.301Z,22.75
2017-02-11T00:13:47.817Z,22.73
2017-02-11T00:14:02.430Z,22.78
2017-02-11T00:14:16.995Z,22.69
2017-02-11T00:14:31.516Z,22.73
2017-02-11T00:14:46.031Z,22.79
2017-02-11T00:15:00.586Z,22.69
2017-02-11T00:15:15.130Z,22.85
2017-02-11T00:15:29.684Z,22.78
2017-02-11T00:15:44.254Z,22.81
2017-02-11T00:15:58.815Z,22.78
2017-02-11T00:16:13.376Z,22.84
2017-02-11T00:16:27.902Z,22.76
2017-02-11T00:16:42.422Z,22.84
2017-02-11T00:16:56.956Z,22.81
2017-02-11T00:17:11.475Z,22.73
2017-02-11T00:17:26.108Z,22.84
2017-02-11T00:17:40.688Z,22.79
2017-02-11T00:17:55.204Z,22.76
2017-02-11T00:18:09.844Z,22.79
2017-02-11T00:18:24.366Z,22.84
2017-02-11T00:18:38.930Z,22.76
2017-02-11T00:18:53.471Z,22.79
2017-02-11T00:19:08.234Z,22.82
2017-02-11T00:19:22.744Z,22.81
2017-02-11T00:19:37.503Z,22.73
2017-02-11T00:19:51.997Z,22.76
2017-02-11T00:20:06.535Z,22.84
2017-02-11T00:20:21.107Z,22.73
2017-02-11T00:20:35.683Z,22.76
2017-02-11T00:20:50.227Z,22.73
2017-02-11T00:21:04.748Z,22.84
2017-02-11T00:21:19.335Z,22.81
2017-02-11T00:21:33.914Z,22.76
2017-02-11T00:21:48.463Z,22.79
2017-02-11T00:22:03.006Z,22.82
2017-02-11T00:22:17.588Z,22.86
2017-02-11T00:22:32.144Z,22.82
2017-02-11T00:22:46.687Z,22.78
2017-02-11T00:23:01.245Z,22.76
2017-02-11T00:23:15.756Z,22.79
2017-02-11T00:23:30.293Z,22.75
2017-02-11T00:23:44.804Z,22.69
2017-02-11T00:23:59.340Z,22.82
2017-02-11T00:24:13.863Z,22.79
2017-02-11T00:24:28.369Z,22.82
2017-02-11T00:24:42.885Z,22.76
2017-02-11T00:24:57.403Z,22.86
2017-02-11T00:25:11.944Z,22.75
2017-02-11T00:25:26.484Z,22.71
2017-02-11T00:25:40.953Z,22.76
2017-02-11T00:25:55.488Z,22.75
2017-02-11T00:26:10.031Z,22.76
2017-02-11T00:26:24.498Z,22.71
2017-02-11T00:26:38.995Z,22.71
2017-02-11T00:26:53.573Z,22.75
2017-02-11T00:27:08.116Z,22.73
2017-02-11T00:27:22.677Z,22.78
2017-02-11T00:27:37.246Z,22.79
2017-02-11T00:27:51.861Z,22.7
2017-02-11T00:28:06.415Z,22.75
2017-02-11T00:28:20.987Z,22.73
2017-02-11T00:28:35.573Z,22.75
2017-02-11T00:28:50.133Z,22.76
2017-02-11T00:29:04.643Z,22.76
2017-02-11T00:29:19.173Z,22.78
2017-02-11T00:29:33.728Z,22.76
2017-02-11T00:29:48.251Z,22.75
2017-02-11T00:30:02.759Z,22.78
2017-02-11T00:30:17.309Z,22.69
2017-02-11T00:30:31.882Z,22.67
2017-02-11T00:30:46.372Z,22.67
2017-02-11T00:31:00.974Z,22.67
2017-02-11T00:31:15.507Z,22.64
2017-02-11T00:31:30.095Z,22.66
2017-02-11T00:31:44.660Z,22.69
2017-02-11T00:31:59.190Z,22.7
2017-02-11T00:32:13.676Z,22.69
2017-02-11T00:32:28.218Z,22.69
2017-02-11T00:32:42.770Z,22.69
2017-02-11T00:32:57.292Z,22.71
2017-02-11T00:33:11.835Z,22.7
2017-02-11T00:33:26.343Z,22.66
2017-02-11T00:33:40.889Z,22.73
2017-02-11T00:33:55.455Z,22.66
2017-02-11T00:34:10.282Z,22.73
2017-02-11T00:34:24.835Z,22.76
2017-02-11T00:34:39.393Z,22.76
2017-02-11T00:34:53.926Z,22.76
2017-02-11T00:35:08.509Z,22.81
2017-02-11T00:35:23.058Z,22.78
2017-02-11T00:35:37.596Z,22.76
2017-02-11T00:35:52.148Z,22.76
2017-02-11T00:36:06.707Z,22.78
2017-02-11T00:36:21.273Z,22.76
2017-02-11T00:36:35.880Z,22.75
2017-02-11T00:36:50.429Z,22.78
2017-02-11T00:37:04.993Z,22.81
2017-02-11T00:37:19.577Z,22.71
2017-02-11T00:37:34.131Z,22.66
2017-02-11T00:37:48.671Z,22.7
2017-02-11T00:38:03.201Z,22.69
2017-02-11T00:38:17.729Z,22.76
2017-02-11T00:38:32.295Z,22.7
2017-02-11T00:38:46.792Z,22.73
2017-02-11T00:39:01.359Z,22.7
2017-02-11T00:39:15.907Z,22.73
2017-02-11T00:39:30.501Z,22.7
2017-02-11T00:39:45.028Z,22.7
2017-02-11T00:39:59.567Z,22.7
2017-02-11T00:40:14.115Z,22.67
2017-02-11T00:40:28.701Z,22.7
2017-02-11T00:40:43.231Z,22.71
2017-02-11T00:40:57.733Z,22.67
2017-02-11T00:41:12.281Z,22.76
2017-02-11T00:41:26.798Z,22.69
2017-02-11T00:41:41.337Z,22.64
2017-02-11T00:41:55.878Z,22.7
2017-02-11T00:42:10.348Z,22.69
2017-02-11T00:42:24.931Z,22.66
2017-02-11T00:42:39.447Z,22.63
2017-02-11T00:42:54.002Z,22.69
2017-02-11T00:43:08.590Z,22.7
2017-02-11T00:43:23.123Z,22.67
2017-02-11T00:43:37.653Z,22.71
2017-02-11T00:43:52.182Z,22.63
2017-02-11T00:44:06.697Z,22.76
2017-02-11T00:44:21.293Z,22.71
2017-02-11T00:44:35.827Z,22.64
2017-02-11T00:44:50.429Z,22.67
2017-02-11T00:45:04.958Z,22.61
2017-02-11T00:45:19.457Z,22.67
2017-02-11T00:45:33.987Z,22.67
2017-02-11T00:45:48.541Z,22.71
2017-02-11T00:46:03.058Z,22.67
2017-02-11T00:46:17.615Z,22.61
2017-02-11T00:46:32.151Z,22.69
2017-02-11T00:46:46.736Z,22.64
2017-02-11T00:47:01.851Z,22.63
2017-02-11T00:47:16.358Z,22.69
2017-02-11T00:47:30.936Z,22.69
2017-02-11T00:47:45.555Z,22.69
2017-02-11T00:48:00.159Z,22.69
2017-02-11T00:48:14.699Z,22.7
2017-02-11T00:48:29.307Z,22.79
2017-02-11T00:48:43.883Z,22.71
2017-02-11T00:48:58.460Z,22.71
2017-02-11T00:49:13.035Z,22.7
2017-02-11T00:49:27.942Z,22.78
2017-02-11T00:49:42.473Z,22.73
2017-02-11T00:49:57.026Z,22.69
2017-02-11T00:50:11.591Z,22.76
2017-02-11T00:50:26.132Z,22.75
2017-02-11T00:50:40.679Z,22.75
2017-02-11T00:50:55.276Z,22.75
2017-02-11T00:51:09.847Z,22.69
2017-02-11T00:51:24.366Z,22.69
2017-02-11T00:51:38.977Z,22.71
2017-02-11T00:51:53.478Z,22.7
2017-02-11T00:52:08.055Z,22.71
2017-02-11T00:52:22.624Z,22.73
2017-02-11T00:52:37.163Z,22.73
2017-02-11T00:52:51.751Z,22.67
2017-02-11T00:53:06.305Z,22.64
2017-02-11T00:53:20.958Z,22.7
2017-02-11T00:53:35.511Z,22.7
2017-02-11T00:53:49.998Z,22.64
2017-02-11T00:54:04.652Z,22.71
2017-02-11T00:54:19.189Z,22.69
2017-02-11T00:54:33.749Z,22.69
2017-02-11T00:54:48.337Z,22.69
2017-02-11T00:55:02.939Z,22.67
2017-02-11T00:55:17.425Z,22.7
2017-02-11T00:55:31.973Z,22.63
2017-02-11T00:55:46.504Z,22.66
2017-02-11T00:56:01.049Z,22.63
2017-02-11T00:56:15.573Z,22.69
2017-02-11T00:56:30.092Z,22.67
2017-02-11T00:56:44.633Z,22.69
2017-02-11T00:56:59.179Z,22.66
2017-02-11T00:57:13.721Z,22.69
2017-02-11T00:57:28.196Z,22.71
2017-02-11T00:57:42.714Z,22.66
2017-02-11T00:57:57.260Z,22.66
2017-02-11T00:58:11.749Z,22.71
2017-02-11T00:58:26.300Z,22.66
2017-02-11T00:58:40.795Z,22.67
2017-02-11T00:58:55.331Z,22.61
2017-02-11T00:59:09.891Z,22.7
2017-02-11T00:59:24.446Z,22.7
2017-02-11T00:59:39.057Z,22.64
2017-02-11T00:59:53.592Z,22.71
2017-02-11T01:00:08.131Z,22.73
2017-02-11T01:00:22.705Z,22.66
2017-02-11T01:00:37.223Z,22.67
2017-02-11T01:00:51.754Z,22.7
2017-02-11T01:01:06.305Z,22.64
2017-02-11T01:01:20.894Z,22.67
2017-02-11T01:01:35.467Z,22.69
2017-02-11T01:01:50.101Z,22.63
2017-02-11T01:02:04.698Z,22.67
2017-02-11T01:02:19.277Z,22.69
2017-02-11T01:02:33.825Z,22.7
2017-02-11T01:02:48.320Z,22.73
2017-02-11T01:03:02.894Z,22.69
2017-02-11T01:03:17.517Z,22.69
2017-02-11T01:03:32.063Z,22.76
2017-02-11T01:03:46.612Z,22.7
2017-02-11T01:04:01.214Z,22.69
2017-02-11T01:04:15.808Z,22.69
2017-02-11T01:04:30.606Z,22.7
2017-02-11T01:04:45.133Z,22.73
2017-02-11T01:04:59.689Z,22.67
2017-02-11T01:05:14.193Z,22.67
2017-02-11T01:05:28.744Z,22.73
2017-02-11T01:05:43.304Z,22.7
2017-02-11T01:05:57.886Z,22.7
2017-02-11T01:06:12.430Z,22.69
2017-02-11T01:06:27.053Z,22.67
2017-02-11T01:06:41.623Z,22.66
2017-02-11T01:06:56.203Z,22.71
2017-02-11T01:07:10.800Z,22.61
2017-02-11T01:07:25.362Z,22.7
2017-02-11T01:07:39.978Z,22.69
2017-02-11T01:07:54.540Z,22.69
2017-02-11T01:08:09.137Z,22.64
2017-02-11T01:08:23.720Z,22.66
2017-02-11T01:08:38.296Z,22.67
2017-02-11T01:08:52.904Z,22.61
2017-02-11T01:09:07.429Z,22.64
2017-02-11T01:09:21.940Z,22.6
2017-02-11T01:09:36.490Z,22.64
2017-02-11T01:09:51.063Z,22.6
2017-02-11T01:10:05.562Z,22.64
2017-02-11T01:10:20.115Z,22.6
2017-02-11T01:10:34.681Z,22.59
2017-02-11T01:10:49.283Z,22.63
2017-02-11T01:11:03.900Z,22.67
2017-02-11T01:11:18.498Z,22.67
2017-02-11T01:11:33.046Z,22.66
2017-02-11T01:11:47.607Z,22.59
2017-02-11T01:12:02.165Z,22.61
2017-02-11T01:12:16.711Z,22.61
2017-02-11T01:12:31.417Z,22.66
2017-02-11T01:12:45.968Z,22.64
2017-02-11T01:13:00.492Z,22.61
2017-02-11T01:13:15.008Z,22.55
2017-02-11T01:13:29.576Z,22.63
2017-02-11T01:13:44.203Z,22.55
2017-02-11T01:13:58.752Z,22.6
2017-02-11T01:14:13.355Z,22.63
2017-02-11T01:14:28.150Z,22.61
2017-02-11T01:14:42.743Z,22.64
2017-02-11T01:14:57.281Z,22.66
2017-02-11T01:15:11.899Z,22.66
2017-02-11T01:15:26.504Z,22.64
2017-02-11T01:15:40.997Z,22.66
2017-02-11T01:15:55.487Z,22.69
2017-02-11T01:16:10.044Z,22.64
2017-02-11T01:16:24.568Z,22.61
2017-02-11T01:16:39.144Z,22.63
2017-02-11T01:16:53.669Z,22.59
2017-02-11T01:17:08.219Z,22.64
2017-02-11T01:17:22.819Z,22.64
2017-02-11T01:17:37.381Z,22.57
2017-02-11T01:17:51.988Z,22.6
2017-02-11T01:18:06.591Z,22.6
2017-02-11T01:18:21.065Z,22.59
2017-02-11T01:18:35.650Z,22.67
2017-02-11T01:18:50.178Z,22.61
2017-02-11T01:19:04.689Z,22.6
2017-02-11T01:19:19.241Z,22.67
2017-02-11T01:19:33.915Z,22.67
2017-02-11T01:19:48.475Z,22.6
2017-02-11T01:20:02.973Z,22.6
2017-02-11T01:20:17.558Z,22.64
2017-02-11T01:20:32.071Z,22.64
2017-02-11T01:20:46.602Z,22.63
2017-02-11T01:21:01.185Z,22.57
2017-02-11T01:21:15.728Z,22.61
2017-02-11T01:21:30.257Z,22.54
2017-02-11T01:21:44.848Z,22.63
2017-02-11T01:21:59.365Z,22.6
2017-02-11T01:22:13.945Z,22.6
2017-02-11T01:22:28.494Z,22.61
2017-02-11T01:22:43.010Z,22.64
2017-02-11T01:22:57.569Z,22.61
2017-02-11T01:23:12.118Z,22.66
2017-02-11T01:23:26.652Z,22.61
2017-02-11T01:23:41.202Z,22.64
2017-02-11T01:23:55.741Z,22.61
2017-02-11T01:24:10.354Z,22.61
2017-02-11T01:24:24.913Z,22.63
2017-02-11T01:24:39.450Z,22.63
2017-02-11T01:24:54.045Z,22.57
2017-02-11T01:25:08.562Z,22.54
2017-02-11T01:25:23.055Z,22.64
2017-02-11T01:25:37.829Z,22.59
2017-02-11T01:25:52.332Z,22.66
2017-02-11T01:26:06.869Z,22.61
2017-02-11T01:26:21.391Z,22.61
2017-02-11T01:26:35.950Z,22.57
2017-02-11T01:26:50.566Z,22.6
2017-02-11T01:27:05.059Z,22.64
2017-02-11T01:27:19.629Z,22.6
2017-02-11T01:27:34.131Z,22.63
2017-02-11T01:27:48.663Z,22.64
2017-02-11T01:28:03.177Z,22.66
2017-02-11T01:28:17.737Z,22.7
2017-02-11T01:28:32.320Z,22.7
2017-02-11T01:28:46.899Z,22.67
2017-02-11T01:29:01.458Z,22.67
2017-02-11T01:29:16.013Z,22.67
2017-02-11T01:29:30.587Z,22.7
2017-02-11T01:29:45.155Z,22.63
2017-02-11T01:29:59.652Z,22.71
2017-02-11T01:30:14.160Z,22.64
2017-02-11T01:30:28.692Z,22.66
2017-02-11T01:30:43.235Z,22.67
2017-02-11T01:30:57.829Z,22.66
2017-02-11T01:31:12.301Z,22.71
2017-02-11T01:31:26.844Z,22.64
2017-02-11T01:31:41.440Z,22.69
2017-02-11T01:31:55.958Z,22.66
2017-02-11T01:32:10.498Z,22.69
2017-02-11T01:32:25.057Z,22.78
2017-02-11T01:32:39.576Z,22.7
2017-02-11T01:32:54.138Z,22.71
2017-02-11T01:33:08.694Z,22.81
2017-02-11T01:33:23.258Z,22.76
2017-02-11T01:33:37.811Z,22.71
2017-02-11T01:33:52.371Z,22.75
2017-02-11T01:34:06.932Z,22.69
2017-02-11T01:34:21.467Z,22.78
2017-02-11T01:34:36.235Z,22.71
2017-02-11T01:34:50.729Z,22.76
2017-02-11T01:35:05.313Z,22.76
2017-02-11T01:35:19.840Z,22.81
2017-02-11T01:35:34.407Z,22.79
2017-02-11T01:35:48.935Z,22.81
2017-02-11T01:36:03.568Z,22.71
2017-02-11T01:36:18.094Z,22.79
2017-02-11T01:36:32.644Z,22.79
2017-02-11T01:36:47.203Z,22.78
2017-02-11T01:37:01.702Z,22.76
2017-02-11T01:37:16.252Z,22.73
2017-02-11T01:37:30.817Z,22.76
2017-02-11T01:37:45.376Z,22.81
2017-02-11T01:37:59.956Z,22.75
2017-02-11T01:38:14.564Z,22.78
2017-02-11T01:38:29.073Z,22.71
2017-02-11T01:38:43.635Z,22.76
2017-02-11T01:38:58.151Z,22.76
2017-02-11T01:39:12.702Z,22.76
2017-02-11T01:39:27.294Z,22.82
2017-02-11T01:39:41.867Z,22.79
2017-02-11T01:39:56.432Z,22.71
2017-02-11T01:40:10.984Z,22.82
2017-02-11T01:40:25.533Z,22.76
2017-02-11T01:40:40.115Z,22.75
2017-02-11T01:40:54.670Z,22.78
2017-02-11T01:41:09.180Z,22.75
2017-02-11T01:41:23.718Z,22.75
2017-02-11T01:41:38.339Z,22.75
2017-02-11T01:41:52.899Z,22.76
2017-02-11T01:42:07.524Z,22.69
2017-02-11T01:42:22.060Z,22.67
2017-02-11T01:42:36.616Z,22.75
2017-02-11T01:42:51.177Z,22.76
2017-02-11T01:43:05.669Z,22.73
2017-02-11T01:43:20.218Z,22.76
2017-02-11T01:43:34.941Z,22.78
2017-02-11T01:43:49.484Z,22.76
2017-02-11T01:44:04.051Z,22.79
2017-02-11T01:44:18.604Z,22.76
2017-02-11T01:44:33.144Z,22.75
2017-02-11T01:44:47.645Z,22.84
2017-02-11T01:45:02.184Z,22.81
2017-02-11T01:45:16.713Z,22.75
2017-02-11T01:45:31.261Z,22.73
2017-02-11T01:45:45.893Z,22.76
2017-02-11T01:46:00.482Z,22.76
2017-02-11T01:46:15.034Z,22.75
2017-02-11T01:46:29.598Z,22.82
2017-02-11T01:46:44.159Z,22.76
2017-02-11T01:46:58.733Z,22.73
2017-02-11T01:47:13.250Z,22.76
2017-02-11T01:47:27.824Z,22.69
2017-02-11T01:47:42.328Z,22.71
2017-02-11T01:47:56.878Z,22.69
2017-02-11T01:48:11.423Z,22.81
2017-02-11T01:48:25.972Z,22.71
2017-02-11T01:48:40.541Z,22.69
2017-02-11T01:48:55.156Z,22.71
2017-02-11T01:49:09.625Z,22.7
2017-02-11T01:49:24.168Z,22.78
2017-02-11T01:49:38.870Z,22.73
2017-02-11T01:49:53.592Z,22.75
2017-02-11T01:50:08.132Z,22.81
2017-02-11T01:50:22.638Z,22.75
2017-02-11T01:50:37.154Z,22.76
2017-02-11T01:50:51.693Z,22.79
2017-02-11T01:51:06.197Z,22.79
2017-02-11T01:51:20.779Z,22.78
2017-02-11T01:51:35.319Z,22.75
2017-02-11T01:51:49.919Z,22.84
2017-02-11T01:52:04.488Z,22.76
2017-02-11T01:52:19.030Z,22.78
2017-02-11T01:52:33.566Z,22.88
2017-02-11T01:52:48.112Z,22.76
2017-02-11T01:53:02.704Z,22.85
2017-02-11T01:53:17.265Z,22.76
2017-02-11T01:53:31.847Z,22.79
2017-02-11T01:53:46.458Z,22.75
2017-02-11T01:54:01.084Z,22.71
2017-02-11T01:54:15.648Z,22.81
2017-02-11T01:54:30.245Z,22.85
2017-02-11T01:54:44.759Z,22.79
2017-02-11T01:54:59.254Z,22.71
2017-02-11T01:55:13.780Z,22.79
2017-02-11T01:55:28.300Z,22.78
2017-02-11T01:55:42.858Z,22.81
2017-02-11T01:55:57.420Z,22.84
2017-02-11T01:56:11.990Z,22.71
2017-02-11T01:56:26.556Z,22.81
2017-02-11T01:56:41.130Z,22.81
2017-02-11T01:56:55.649Z,22.78
2017-02-11T01:57:10.198Z,22.84
2017-02-11T01:57:24.770Z,22.81
2017-02-11T01:57:39.323Z,22.79
2017-02-11T01:57:53.918Z,22.82
2017-02-11T01:58:08.501Z,22.84
2017-02-11T01:58:23.071Z,22.86
2017-02-11T01:58:37.638Z,22.78
2017-02-11T01:58:52.183Z,22.79
2017-02-11T01:59:06.753Z,22.81
2017-02-11T01:59:21.270Z,22.82
2017-02-11T01:59:35.827Z,22.86
2017-02-11T01:59:50.359Z,22.81
2017-02-11T02:00:04.971Z,22.89
2017-02-11T02:00:19.552Z,22.81
2017-02-11T02:00:34.124Z,22.82
2017-02-11T02:00:48.701Z,22.76
2017-02-11T02:01:03.248Z,22.78
2017-02-11T02:01:17.772Z,22.84
2017-02-11T02:01:32.343Z,22.81
2017-02-11T02:01:46.924Z,22.79
2017-02-11T02:02:01.447Z,22.79
2017-02-11T02:02:16.073Z,22.79
2017-02-11T02:02:30.567Z,22.78
2017-02-11T02:02:45.116Z,22.79
2017-02-11T02:02:59.623Z,22.82
2017-02-11T02:03:14.146Z,22.79
2017-02-11T02:03:28.749Z,22.75
2017-02-11T02:03:43.288Z,22.78
2017-02-11T02:03:57.840Z,22.82
2017-02-11T02:04:12.383Z,22.79
2017-02-11T02:04:26.993Z,22.84
2017-02-11T02:04:41.544Z,22.81
2017-02-11T02:04:56.314Z,22.79
2017-02-11T02:05:10.838Z,22.78
2017-02-11T02:05:25.397Z,22.71
2017-02-11T02:05:39.974Z,22.84
2017-02-11T02:05:54.462Z,22.76
2017-02-11T02:06:09.032Z,22.82
2017-02-11T02:06:23.560Z,22.84
2017-02-11T02:06:38.145Z,22.84
2017-02-11T02:06:52.707Z,22.79
2017-02-11T02:07:07.315Z,22.79
2017-02-11T02:07:21.839Z,22.82
2017-02-11T02:07:36.396Z,22.81
2017-02-11T02:07:50.939Z,22.71
2017-02-11T02:08:05.686Z,22.84
2017-02-11T02:08:20.220Z,22.79
2017-02-11T02:08:34.791Z,22.82
2017-02-11T02:08:49.327Z,22.79
2017-02-11T02:09:03.854Z,22.82
2017-02-11T02:09:18.374Z,22.76
2017-02-11T02:09:32.927Z,22.91
2017-02-11T02:09:47.469Z,22.81
2017-02-11T02:10:01.947Z,22.84
2017-02-11T02:10:16.549Z,22.86
2017-02-11T02:10:31.141Z,22.88
2017-02-11T02:10:45.788Z,22.78
2017-02-11T02:11:00.308Z,22.78
2017-02-11T02:11:14.847Z,22.82
2017-02-11T02:11:29.440Z,22.82
2017-02-11T02:11:44.012Z,22.81
2017-02-11T02:11:58.558Z,22.79
2017-02-11T02:12:13.158Z,22.84
2017-02-11T02:12:27.729Z,22.78
2017-02-11T02:12:42.321Z,22.82
2017-02-11T02:12:56.930Z,22.81
2017-02-11T02:13:11.535Z,22.84
2017-02-11T02:13:26.045Z,22.79
2017-02-11T02:13:40.592Z,22.79
2017-02-11T02:13:55.105Z,22.85
2017-02-11T02:14:09.707Z,22.84
2017-02-11T02:14:24.285Z,22.79
2017-02-11T02:14:38.851Z,22.85
2017-02-11T02:14:53.415Z,22.91
2017-02-11T02:15:07.981Z,22.85
2017-02-11T02:15:22.533Z,22.76
2017-02-11T02:15:37.135Z,22.84
2017-02-11T02:15:51.686Z,22.85
2017-02-11T02:16:06.231Z,22.84
2017-02-11T02:16:20.744Z,22.78
2017-02-11T02:16:35.312Z,22.86
2017-02-11T02:16:49.879Z,22.88
2017-02-11T02:17:04.425Z,22.85
2017-02-11T02:17:19.042Z,22.84
2017-02-11T02:17:33.595Z,22.85
2017-02-11T02:17:48.134Z,22.86
2017-02-11T02:18:02.663Z,22.88
2017-02-11T02:18:17.216Z,22.81
2017-02-11T02:18:31.778Z,22.88
2017-02-11T02:18:46.370Z,22.81
2017-02-11T02:19:00.915Z,22.86
2017-02-11T02:19:15.416Z,22.81
2017-02-11T02:19:29.990Z,22.86
2017-02-11T02:19:44.512Z,22.79
2017-02-11T02:19:59.276Z,22.88
2017-02-11T02:20:13.844Z,22.84
2017-02-11T02:20:28.428Z,22.78
2017-02-11T02:20:43.016Z,22.82
2017-02-11T02:20:57.546Z,22.84
2017-02-11T02:21:12.113Z,22.82
2017-02-11T02:21:26.644Z,22.85
2017-02-11T02:21:41.223Z,22.81
2017-02-11T02:21:55.747Z,22.82
2017-02-11T02:22:10.326Z,22.84
2017-02-11T02:22:24.850Z,22.79
2017-02-11T02:22:39.400Z,22.81
2017-02-11T02:22:53.961Z,22.81
2017-02-11T02:23:08.519Z,22.81
2017-02-11T02:23:23.047Z,22.76
2017-02-11T02:23:37.585Z,22.76
2017-02-11T02:23:52.058Z,22.79
2017-02-11T02:24:06.593Z,22.81
2017-02-11T02:24:21.169Z,22.76
2017-02-11T02:24:35.688Z,22.79
2017-02-11T02:24:50.262Z,22.78
2017-02-11T02:25:04.751Z,22.78
2017-02-11T02:25:19.298Z,22.81
2017-02-11T02:25:33.810Z,22.76
2017-02-11T02:25:48.319Z,22.76
2017-02-11T02:26:02.872Z,22.84
2017-02-11T02:26:17.371Z,22.75
2017-02-11T02:26:31.941Z,22.75
2017-02-11T02:26:46.474Z,22.75
2017-02-11T02:27:01.020Z,22.82
2017-02-11T02:27:15.627Z,22.88
2017-02-11T02:27:30.158Z,22.85
2017-02-11T02:27:44.713Z,22.81
2017-02-11T02:27:59.276Z,22.82
2017-02-11T02:28:13.823Z,22.81
2017-02-11T02:28:28.314Z,22.84
2017-02-11T02:28:42.887Z,22.84
2017-02-11T02:28:57.420Z,22.88
2017-02-11T02:29:11.994Z,22.85
2017-02-11T02:29:26.593Z,22.84
2017-02-11T02:29:41.107Z,22.86
2017-02-11T02:29:55.632Z,22.91
2017-02-11T02:30:10.130Z,22.82
2017-02-11T02:30:24.661Z,22.84
2017-02-11T02:30:39.217Z,22.84
2017-02-11T02:30:53.755Z,22.88
2017-02-11T02:31:08.327Z,22.82
2017-02-11T02:31:22.894Z,22.86
2017-02-11T02:31:37.444Z,22.96
2017-02-11T02:31:51.947Z,22.84
2017-02-11T02:32:06.458Z,22.91
2017-02-11T02:32:20.990Z,22.84
2017-02-11T02:32:35.519Z,22.94
2017-02-11T02:32:50.076Z,22.91
2017-02-11T02:33:04.642Z,22.97
2017-02-11T02:33:19.187Z,22.84
2017-02-11T02:33:33.680Z,22.84
2017-02-11T02:33:48.291Z,22.85
2017-02-11T02:34:02.796Z,22.96
2017-02-11T02:34:17.364Z,22.81
2017-02-11T02:34:31.920Z,22.96
2017-02-11T02:34:46.482Z,22.92
2017-02-11T02:35:01.279Z,22.96
2017-02-11T02:35:15.744Z,22.82
2017-02-11T02:35:30.290Z,22.88
2017-02-11T02:35:44.868Z,22.88
2017-02-11T02:35:59.460Z,22.81
2017-02-11T02:36:13.969Z,22.81
2017-02-11T02:36:28.553Z,22.84
2017-02-11T02:36:43.076Z,22.85
2017-02-11T02:36:57.616Z,22.89
2017-02-11T02:37:12.195Z,22.84
2017-02-11T02:37:26.751Z,22.79
2017-02-11T02:37:41.241Z,22.88
2017-02-11T02:37:55.815Z,22.84
2017-02-11T02:38:10.323Z,22.81
2017-02-11T02:38:24.866Z,22.84
2017-02-11T02:38:39.491Z,22.78
2017-02-11T02:38:54.094Z,22.79
2017-02-11T02:39:08.655Z,22.86
2017-02-11T02:39:23.193Z,22.84
2017-02-11T02:39:37.720Z,22.88
2017-02-11T02:39:52.312Z,22.97
2017-02-11T02:40:06.837Z,22.81
2017-02-11T02:40:21.385Z,22.86
2017-02-11T02:40:35.964Z,22.86
2017-02-11T02:40:50.507Z,22.86
2017-02-11T02:41:05.094Z,22.81
2017-02-11T02:41:19.626Z,22.85
2017-02-11T02:41:34.166Z,22.85
2017-02-11T02:41:48.740Z,22.79
2017-02-11T02:42:03.244Z,22.82
2017-02-11T02:42:17.802Z,22.81
2017-02-11T02:42:32.363Z,22.81
2017-02-11T02:42:46.859Z,22.79
2017-02-11T02:43:01.462Z,22.81
2017-02-11T02:43:16.039Z,22.88
2017-02-11T02:43:30.588Z,22.82
2017-02-11T02:43:45.118Z,22.89
2017-02-11T02:43:59.704Z,22.84
2017-02-11T02:44:14.252Z,22.79
2017-02-11T02:44:28.812Z,22.81
2017-02-11T02:44:43.401Z,22.82
2017-02-11T02:44:57.948Z,22.81
2017-02-11T02:45:12.516Z,22.79
2017-02-11T02:45:27.049Z,22.86
2017-02-11T02:45:41.598Z,22.82
2017-02-11T02:45:56.214Z,22.86
2017-02-11T02:46:10.768Z,22.79
2017-02-11T02:46:25.336Z,22.84
2017-02-11T02:46:39.891Z,22.84
2017-02-11T02:46:54.472Z,22.84
2017-02-11T02:47:09.048Z,22.78
2017-02-11T02:47:23.716Z,22.82
2017-02-11T02:47:38.260Z,22.84
2017-02-11T02:47:52.798Z,22.79
2017-02-11T02:48:07.335Z,22.78
2017-02-11T02:48:21.874Z,22.86
2017-02-11T02:48:36.390Z,22.81
2017-02-11T02:48:50.941Z,22.79
2017-02-11T02:49:05.532Z,22.79
2017-02-11T02:49:20.167Z,22.86
2017-02-11T02:49:34.731Z,22.84
2017-02-11T02:49:49.308Z,22.78
2017-02-11T02:50:03.877Z,22.79
2017-02-11T02:50:18.690Z,22.88
2017-02-11T02:50:33.232Z,22.73
2017-02-11T02:50:47.799Z,22.76
2017-02-11T02:51:02.367Z,22.89
2017-02-11T02:51:16.926Z,22.81
2017-02-11T02:51:31.508Z,22.79
2017-02-11T02:51:46.030Z,22.79
2017-02-11T02:52:00.541Z,22.81
2017-02-11T02:52:15.077Z,22.73
2017-02-11T02:52:29.628Z,22.81
2017-02-11T02:52:44.215Z,22.81
2017-02-11T02:52:58.723Z,22.84
2017-02-11T02:53:13.256Z,22.79
2017-02-11T02:53:27.846Z,22.78
2017-02-11T02:53:42.359Z,22.73
2017-02-11T02:53:56.952Z,22.73
2017-02-11T02:54:11.519Z,22.82
2017-02-11T02:54:26.101Z,22.76
2017-02-11T02:54:40.598Z,22.82
2017-02-11T02:54:55.159Z,22.75
2017-02-11T02:55:09.995Z,22.78
2017-02-11T02:55:24.555Z,22.79
2017-02-11T02:55:39.105Z,22.7
2017-02-11T02:55:53.697Z,22.78
2017-02-11T02:56:08.235Z,22.69
2017-02-11T02:56:22.809Z,22.73
2017-02-11T02:56:37.339Z,22.76
2017-02-11T02:56:51.920Z,22.7
2017-02-11T02:57:06.513Z,22.69
2017-02-11T02:57:21.022Z,22.71
2017-02-11T02:57:35.529Z,22.69
2017-02-11T02:57:50.075Z,22.73
2017-02-11T02:58:04.636Z,22.66
2017-02-11T02:58:19.169Z,22.69
2017-02-11T02:58:33.698Z,22.7
2017-02-11T02:58:48.235Z,22.66
2017-02-11T02:59:02.816Z,22.66
2017-02-11T02:59:17.365Z,22.63
2017-02-11T02:59:31.939Z,22.7
2017-02-11T02:59:46.518Z,22.71
2017-02-11T03:00:01.053Z,22.64
2017-02-11T03:00:15.726Z,22.7
2017-02-11T03:00:30.292Z,22.69
2017-02-11T03:00:44.846Z,22.69
2017-02-11T03:00:59.479Z,22.7
2017-02-11T03:01:14.023Z,22.69
2017-02-11T03:01:28.642Z,22.63
2017-02-11T03:01:43.224Z,22.7
2017-02-11T03:01:57.751Z,22.7
2017-02-11T03:02:12.297Z,22.7
2017-02-11T03:02:26.772Z,22.66
2017-02-11T03:02:41.306Z,22.69
2017-02-11T03:02:55.902Z,22.67
2017-02-11T03:03:10.439Z,22.67
2017-02-11T03:03:25.005Z,22.64
2017-02-11T03:03:39.517Z,22.61
2017-02-11T03:03:54.101Z,22.64
2017-02-11T03:04:08.601Z,22.66
2017-02-11T03:04:23.136Z,22.64
2017-02-11T03:04:37.735Z,22.66
2017-02-11T03:04:52.279Z,22.67
2017-02-11T03:05:06.816Z,22.6
2017-02-11T03:05:21.557Z,22.64
2017-02-11T03:05:36.118Z,22.64
2017-02-11T03:05:50.682Z,22.66
2017-02-11T03:06:05.248Z,22.64
2017-02-11T03:06:19.804Z,22.69
2017-02-11T03:06:34.319Z,22.64
2017-02-11T03:06:48.938Z,22.69
2017-02-11T03:07:03.508Z,22.66
2017-02-11T03:07:18.080Z,22.64
2017-02-11T03:07:32.642Z,22.64
2017-02-11T03:07:47.230Z,22.64
2017-02-11T03:08:01.778Z,22.66